LQTZLQSA

Guest
Details From LQTZ - TUZLA
To LQSA - Sarajevo
Flight Number -
Tags generated
Created
Modified
Stats Distance 42 nm / 78 km
Max Altitude 1,700 ft / 518 m
Waypoints 3
Social Downloads 6
Likes 0
Share VATSIM

Download

Looking for another format? Having issues loading an existing format? Contact us
Advertisement - Login to hide

Notes

Basic altitude profile: - Ascent Rate: 2000ft/min - Ascent Speed: 240kts - Cruise Altitude: 8000ft - Cruise Speed: 250kts - Descent Rate: 1500ft/min - Descent Speed: 240kts Options: - Use NATs: yes - Use PACOTS: yes - Use low airways: yes - Use high airways: yes

Route

LQTZ KEB LQSA

ID Type Via Altitude Latitude Longitude Leg Dist Tot Dist Heading (true) Name
O LQTZ APT - 0 ft / 0 m 44.45867˚ 18.72483˚ - 0 nm - TUZLA
KEB VOR - 1,700 ft / 518 m 43.93386˚ 18.44983˚ 33 nm 33 nm 201° / 200° SARAJEVO VOR-DME
O LQSA APT - 0 ft / 0 m 43.82460˚ 18.33150˚ 8 nm 41 nm 218° / 218° Sarajevo

Altitude Profile

Advertisement - Login to hide

LQTZ

Details ICAO LQTZ
Name TUZLA
Region Bosnia and Herzegovinia
Timezone Europe/Sarajevo (UTC+1.0)
Stats Elevation 784 ft / 239 m (AMSL)
Location 44.458666° 18.724833°
Runways 1
Magnetic Variation 4.351° E

METAR

LQTZ 121230Z VRB02KT 9999 FEW040 18/07 Q1010

Decode

TAF

Not found

Departure Runways

ID Width Length Bearing (true) Bearing (mag) Surface Threshold Offset Overrun Length
09 148 ft / 45 m 8,119 ft / 2,475 m 96.01° 91.66° Asphalt 0 ft / 0 m 99 ft / 30 m
27 148 ft / 45 m 8,119 ft / 2,475 m 276.03° 271.68° Asphalt 0 ft / 0 m 110 ft / 34 m

LQSA

Details ICAO LQSA (SJJ)
Name Sarajevo
Region Bosnia and Herzegovinia
Timezone Europe/Sarajevo (UTC+1.0)
Stats Elevation 1,708 ft / 521 m (AMSL)
Location 43.824597° 18.331500°
Runways 1
Magnetic Variation 4.221° E

METAR

LQSA 121230Z VRB08G20KT 9999 SCT055 15/04 Q1014 WS ALL RWY NOSIG

Decode

TAF

Not found

Destination Runways

ID Width Length Bearing (true) Bearing (mag) Surface Threshold Offset Overrun Length
12 150 ft / 46 m 8,519 ft / 2,597 m 117.41° 113.19° Asphalt 333 ft / 102 m 0 ft / 0 m
30 150 ft / 46 m 8,519 ft / 2,597 m 297.43° 293.21° Asphalt 666 ft / 203 m 0 ft / 0 m

Approach Navaids

Runway Type Ident Frequency Range Bearing (true) Bearing (mag) Slope Elevation
12 Localiser BHS 110.70 MHz 25 nm / 46 km 117.00° 112.78° - 1,709 ft / 521 m (AMSL)
12 Glidescope BHS 110.70 MHz 25 nm / 46 km 117.00° 112.78° 3.20° 1,705 ft / 520 m (AMSL)
12 DME BHS 110.70 MHz 25 nm / 46 km - - - 1,705 ft / 520 m (AMSL)

Popular Alternatives